TAF

Aerodrome Forecast TAF

TAF description (Slovak)

29.06.2016 - 05:00 UTC

TAF LZIB 290500Z 2906/3006 04003KT CAVOK
    BECMG 2907/2909 13006KT 9999 SCT040
    BECMG 2915/2917 22004KT CAVOK=
TAF LZKZ 290500Z 2906/3006 01004KT CAVOK
    BECMG 2910/2912 21004KT
    TEMPO 2910/2915 9999 SCT040=
TAF LZTT 290500Z 2906/3006 28007KT CAVOK
    BECMG 2908/2910 11004KT SCT040
    PROB30 TEMPO 2911/2917 27016KT 5000 TSRA FEW025CB BKN050=

29.06.2016 - 05:00 UTC

TAF LZSL 290500Z 2906/2915 VRB02KT CAVOK
    TEMPO 2910/2915 18004KT 9999 SCT040=
TAF LZPP 290500Z 2906/2915 02005KT CAVOK
    BECMG 2908/2910 17005KT=
TAF LZZI 290500Z 2906/2915 VRB02KT CAVOK
    TEMPO 2910/2915 22005KT 9999 SCT040=

29.06.2016 - 05:00 UTC

TAF LZSL 290500Z 2906/2915 VRB02KT CAVOK
    TEMPO 2910/2915 18004KT 9999 SCT040=
TAF LZPP 290500Z 2906/2915 02005KT CAVOK
    BECMG 2908/2910 17005KT=
TAF LZZI 290500Z 2906/2915 VRB02KT CAVOK
    TEMPO 2910/2915 22005KT 9999 SCT040=

29.06.2016 - 02:00 UTC

TAF LZSL 290200Z 2903/2912 02004KT CAVOK
    PROB40 TEMPO 2903/2905 VRB02KT 2000 MIFG SCT010=
TAF LZZI 290200Z 2903/2912 02002KT CAVOK
    PROB40 TEMPO 2903/2905 2000 MIFG SCT010=

29.06.2016 - 02:00 UTC

TAF LZSL 290200Z 2903/2912 02004KT CAVOK
    PROB40 TEMPO 2903/2905 VRB02KT 2000 MIFG SCT010=
TAF LZZI 290200Z 2903/2912 02002KT CAVOK
    PROB40 TEMPO 2903/2905 2000 MIFG SCT010=

skok na menu ↑


skok na začiatok stránky ↑